createdAt,value
2018-06-28T00:02:19.910Z,22.53
2018-06-28T00:04:46.547Z,22.56
2018-06-28T00:07:13.520Z,22.54
2018-06-28T00:09:40.203Z,22.54
2018-06-28T00:12:06.822Z,22.51
2018-06-28T00:14:33.462Z,22.52
2018-06-28T00:17:00.106Z,22.53
2018-06-28T00:19:26.739Z,22.52
2018-06-28T00:21:53.382Z,22.53
2018-06-28T00:24:20.023Z,22.51
2018-06-28T00:26:46.665Z,22.51
2018-06-28T00:29:13.307Z,22.50
2018-06-28T00:31:39.959Z,22.47
2018-06-28T00:34:06.598Z,22.50
2018-06-28T00:36:33.278Z,22.47
2018-06-28T00:38:59.915Z,22.49
2018-06-28T00:41:26.552Z,22.48
2018-06-28T00:43:53.261Z,22.47
2018-06-28T00:46:19.927Z,22.52
2018-06-28T00:48:46.593Z,22.50
2018-06-28T00:51:13.285Z,22.42
2018-06-28T00:53:39.879Z,22.47
2018-06-28T00:56:06.559Z,22.49
2018-06-28T00:58:33.143Z,22.45
2018-06-28T01:00:59.786Z,22.44
2018-06-28T01:03:26.437Z,22.46
2018-06-28T01:05:53.111Z,22.44
2018-06-28T01:08:19.717Z,22.43
2018-06-28T01:10:46.364Z,22.45
2018-06-28T01:13:13.010Z,22.44
2018-06-28T01:15:39.649Z,22.44
2018-06-28T01:18:06.336Z,22.43
2018-06-28T01:20:32.983Z,22.45
2018-06-28T01:22:59.622Z,22.40
2018-06-28T01:25:26.272Z,22.35
2018-06-28T01:27:52.905Z,22.42
2018-06-28T01:30:19.550Z,22.47
2018-06-28T01:32:46.210Z,22.45
2018-06-28T01:35:12.855Z,22.45
2018-06-28T01:37:39.501Z,22.43
2018-06-28T01:40:06.140Z,22.46
2018-06-28T01:42:32.790Z,22.46
2018-06-28T01:44:59.436Z,22.46
2018-06-28T01:47:26.064Z,22.44
2018-06-28T01:49:52.709Z,22.45
2018-06-28T01:52:19.346Z,22.45
2018-06-28T01:54:45.989Z,22.42
2018-06-28T01:57:12.626Z,22.45
2018-06-28T01:59:39.321Z,22.43
2018-06-28T02:02:05.973Z,22.43
2018-06-28T02:04:32.609Z,22.45
2018-06-28T02:06:59.243Z,22.45
2018-06-28T02:09:25.875Z,22.45
2018-06-28T02:11:52.522Z,22.47
2018-06-28T02:14:19.158Z,22.44
2018-06-28T02:16:45.810Z,22.41
2018-06-28T02:19:12.455Z,22.41
2018-06-28T02:21:39.106Z,22.42
2018-06-28T02:24:05.754Z,22.44
2018-06-28T02:26:32.423Z,22.44
2018-06-28T02:28:59.037Z,22.43
2018-06-28T02:31:25.677Z,22.43
2018-06-28T02:33:52.316Z,22.43
2018-06-28T02:36:18.970Z,22.42
2018-06-28T02:38:45.605Z,22.42
2018-06-28T02:41:12.262Z,22.42
2018-06-28T02:43:38.892Z,22.41
2018-06-28T02:46:05.538Z,22.43
2018-06-28T02:48:32.166Z,22.37
2018-06-28T02:50:58.851Z,22.37
2018-06-28T02:53:25.488Z,22.36
2018-06-28T02:55:52.131Z,22.36
2018-06-28T02:58:18.767Z,22.39
2018-06-28T03:00:45.398Z,22.38
2018-06-28T03:03:12.047Z,22.39
2018-06-28T03:05:38.685Z,22.38
2018-06-28T03:08:05.326Z,22.37
2018-06-28T03:10:31.970Z,22.37
2018-06-28T03:12:58.610Z,22.37
2018-06-28T03:15:25.248Z,22.40
2018-06-28T03:17:51.925Z,22.41
2018-06-28T03:20:18.569Z,22.36
2018-06-28T03:22:45.210Z,22.39
2018-06-28T03:25:15.094Z,22.34
2018-06-28T03:27:41.791Z,22.38
2018-06-28T03:30:08.479Z,22.36
2018-06-28T03:32:35.116Z,22.31
2018-06-28T03:35:01.773Z,22.29
2018-06-28T03:37:28.402Z,22.31
2018-06-28T03:39:55.062Z,22.23
2018-06-28T03:42:21.702Z,22.23
2018-06-28T03:44:48.349Z,22.22
2018-06-28T03:47:15.021Z,22.28
2018-06-28T03:49:41.658Z,22.36
2018-06-28T03:52:08.326Z,22.39
2018-06-28T03:54:34.990Z,22.40
2018-06-28T03:57:01.635Z,22.40
2018-06-28T03:59:28.274Z,22.44
2018-06-28T04:01:54.918Z,22.46
2018-06-28T04:04:21.565Z,22.47
2018-06-28T04:06:48.204Z,22.52
2018-06-28T04:09:14.854Z,22.46
2018-06-28T04:11:41.497Z,22.46
2018-06-28T04:14:08.254Z,22.48
2018-06-28T04:16:34.884Z,22.54
2018-06-28T04:19:01.553Z,22.49
2018-06-28T04:21:28.205Z,22.54
2018-06-28T04:23:54.806Z,22.48
2018-06-28T04:26:21.453Z,22.47
2018-06-28T04:28:48.083Z,22.47
2018-06-28T04:31:14.721Z,22.54
2018-06-28T04:33:41.364Z,22.52
2018-06-28T04:36:08.006Z,22.52
2018-06-28T04:38:34.641Z,22.53
2018-06-28T04:41:01.393Z,22.55
2018-06-28T04:43:27.913Z,22.56
2018-06-28T04:45:54.587Z,22.60
2018-06-28T04:48:21.218Z,22.60
2018-06-28T04:50:47.869Z,22.63
2018-06-28T04:53:14.542Z,22.57
2018-06-28T04:55:41.179Z,22.58
2018-06-28T04:58:07.962Z,22.63
2018-06-28T05:00:34.601Z,22.68
2018-06-28T05:03:01.236Z,22.62
2018-06-28T05:05:27.913Z,22.67
2018-06-28T05:07:54.616Z,22.66
2018-06-28T05:10:21.351Z,22.67
2018-06-28T05:12:47.985Z,22.68
2018-06-28T05:15:14.646Z,22.67
2018-06-28T05:17:41.273Z,22.65
2018-06-28T05:20:07.989Z,22.71
2018-06-28T05:22:34.671Z,22.75
2018-06-28T05:25:01.321Z,22.75
2018-06-28T05:27:28.008Z,22.83
2018-06-28T05:29:54.670Z,22.77
2018-06-28T05:32:21.328Z,22.77
2018-06-28T05:34:48.007Z,22.79
2018-06-28T05:37:14.652Z,22.75
2018-06-28T05:39:41.261Z,22.82
2018-06-28T05:42:07.916Z,22.83
2018-06-28T05:44:34.553Z,22.84
2018-06-28T05:47:01.237Z,22.91
2018-06-28T05:49:27.828Z,22.96
2018-06-28T05:51:54.543Z,22.89
2018-06-28T05:54:21.179Z,23.04
2018-06-28T05:56:47.866Z,22.96
2018-06-28T05:59:14.507Z,22.96
2018-06-28T06:01:41.147Z,23.02
2018-06-28T06:04:07.798Z,23.01
2018-06-28T06:06:34.455Z,23.03
2018-06-28T06:09:01.108Z,23.04
2018-06-28T06:11:27.788Z,23.02
2018-06-28T06:13:54.444Z,23.00
2018-06-28T06:16:21.129Z,23.05
2018-06-28T06:18:47.899Z,23.07
2018-06-28T06:21:14.575Z,23.13
2018-06-28T06:23:41.273Z,23.13
2018-06-28T06:26:07.913Z,23.10
2018-06-28T06:28:34.552Z,23.13
2018-06-28T06:31:01.256Z,23.27
2018-06-28T06:33:27.874Z,23.31
2018-06-28T06:35:54.553Z,23.27
2018-06-28T06:38:21.190Z,23.41
2018-06-28T06:40:47.943Z,23.31
2018-06-28T06:43:14.488Z,23.42
2018-06-28T06:45:42.229Z,23.48
2018-06-28T06:48:08.946Z,23.52
2018-06-28T06:50:35.581Z,23.51
2018-06-28T06:53:02.260Z,23.49
2018-06-28T06:55:28.914Z,23.56
2018-06-28T06:57:55.608Z,23.54
2018-06-28T07:00:22.250Z,23.54
2018-06-28T07:02:48.907Z,23.58
2018-06-28T07:05:15.582Z,23.66
2018-06-28T07:07:42.194Z,23.73
2018-06-28T07:10:08.860Z,23.74
2018-06-28T07:12:35.571Z,23.73
2018-06-28T07:15:02.249Z,23.62
2018-06-28T07:17:28.925Z,23.67
2018-06-28T07:19:55.542Z,23.64
2018-06-28T07:22:22.226Z,23.63
2018-06-28T07:24:48.916Z,23.67
2018-06-28T07:27:15.556Z,23.85
2018-06-28T07:29:42.216Z,23.96
2018-06-28T07:32:08.857Z,23.81
2018-06-28T07:34:35.529Z,23.81
2018-06-28T07:37:02.170Z,23.88
2018-06-28T07:39:28.829Z,23.85
2018-06-28T07:41:55.470Z,23.84
2018-06-28T07:44:22.202Z,23.85
2018-06-28T07:49:15.495Z,23.84
2018-06-28T07:51:42.152Z,23.90
2018-06-28T07:54:08.877Z,23.99
2018-06-28T07:56:35.518Z,23.96
2018-06-28T07:59:02.167Z,23.84
2018-06-28T08:01:28.850Z,23.88
2018-06-28T08:03:55.462Z,23.89
2018-06-28T08:06:22.189Z,23.96
2018-06-28T08:08:48.851Z,23.93
2018-06-28T08:11:15.525Z,23.86
2018-06-28T08:13:42.206Z,23.94
2018-06-28T08:16:08.889Z,23.88
2018-06-28T08:18:35.498Z,23.92
2018-06-28T08:21:02.135Z,23.90
2018-06-28T08:23:28.824Z,23.87
2018-06-28T08:25:55.434Z,23.89
2018-06-28T08:28:22.120Z,23.90
2018-06-28T08:30:48.788Z,24.02
2018-06-28T08:33:16.828Z,24.09
2018-06-28T08:35:42.129Z,24.07
2018-06-28T08:38:08.784Z,23.92
2018-06-28T08:40:35.542Z,23.97
2018-06-28T08:43:02.183Z,23.97
2018-06-28T08:45:28.823Z,24.01
2018-06-28T08:47:58.085Z,24.05
2018-06-28T08:50:24.777Z,24.02
2018-06-28T08:52:51.652Z,24.02
2018-06-28T08:55:18.239Z,24.08
2018-06-28T08:57:44.943Z,24.09
2018-06-28T09:00:13.587Z,24.05
2018-06-28T09:02:40.246Z,24.02
2018-06-28T09:05:06.886Z,24.10
2018-06-28T09:07:33.528Z,24.03
2018-06-28T09:10:00.174Z,23.95
2018-06-28T09:12:28.177Z,23.94
2018-06-28T09:14:53.490Z,23.94
2018-06-28T09:17:20.142Z,23.93
2018-06-28T09:19:46.855Z,23.91
2018-06-28T09:22:13.461Z,23.96
2018-06-28T09:24:40.107Z,24.03
2018-06-28T09:27:06.753Z,24.01
2018-06-28T09:29:33.458Z,23.99
2018-06-28T09:32:00.141Z,23.99
2018-06-28T09:34:26.782Z,23.95
2018-06-28T09:36:53.445Z,24.01
2018-06-28T09:39:22.943Z,23.97
2018-06-28T09:41:49.587Z,23.96
2018-06-28T09:44:16.256Z,24.08
2018-06-28T09:46:42.891Z,23.98
2018-06-28T09:49:10.549Z,23.94
2018-06-28T09:51:37.245Z,23.91
2018-06-28T09:54:03.895Z,24.06
2018-06-28T09:56:30.632Z,24.01
2018-06-28T09:58:57.307Z,24.01
2018-06-28T10:01:23.957Z,24.03
2018-06-28T10:03:50.638Z,23.99
2018-06-28T10:06:17.278Z,24.16
2018-06-28T10:08:44.031Z,24.16
2018-06-28T10:11:10.667Z,24.26
2018-06-28T10:13:37.344Z,24.23
2018-06-28T10:16:04.032Z,24.13
2018-06-28T10:18:30.681Z,24.08
2018-06-28T10:20:57.323Z,24.21
2018-06-28T10:23:23.994Z,24.12
2018-06-28T10:25:50.705Z,24.19
2018-06-28T10:28:17.353Z,24.25
2018-06-28T10:30:43.976Z,24.22
2018-06-28T10:33:10.685Z,24.22
2018-06-28T10:35:37.334Z,24.33
2018-06-28T10:38:03.971Z,24.26
2018-06-28T10:40:30.626Z,24.34
2018-06-28T10:42:57.292Z,24.40
2018-06-28T10:45:24.035Z,24.38
2018-06-28T10:47:50.704Z,24.35
2018-06-28T10:50:17.308Z,24.43
2018-06-28T10:52:43.965Z,24.53
2018-06-28T10:55:10.607Z,24.56
2018-06-28T10:57:37.355Z,24.61
2018-06-28T11:00:04.079Z,24.69
2018-06-28T11:02:30.717Z,24.58
2018-06-28T11:04:57.509Z,24.65
2018-06-28T11:07:24.157Z,24.63
2018-06-28T11:09:50.800Z,24.63
2018-06-28T11:12:17.511Z,24.67
2018-06-28T11:14:44.174Z,24.63
2018-06-28T11:17:10.865Z,24.62
2018-06-28T11:19:37.475Z,24.69
2018-06-28T11:22:04.152Z,24.68
2018-06-28T11:24:30.835Z,24.65
2018-06-28T11:26:57.542Z,24.71
2018-06-28T11:29:24.181Z,24.71
2018-06-28T11:31:50.826Z,24.73
2018-06-28T11:34:17.501Z,24.73
2018-06-28T11:36:44.137Z,24.75
2018-06-28T11:39:10.842Z,24.79
2018-06-28T11:41:37.517Z,24.81
2018-06-28T11:44:04.244Z,24.80
2018-06-28T11:46:30.911Z,24.88
2018-06-28T11:48:57.596Z,24.85
2018-06-28T11:51:24.206Z,24.86
2018-06-28T11:53:50.862Z,24.89
2018-06-28T11:56:17.517Z,24.88
2018-06-28T11:58:44.160Z,24.95
2018-06-28T12:01:10.819Z,24.90
2018-06-28T12:03:37.457Z,24.86
2018-06-28T12:06:04.104Z,24.95
2018-06-28T12:08:30.834Z,24.91
2018-06-28T12:10:57.497Z,24.94
2018-06-28T12:13:26.316Z,24.90
2018-06-28T12:15:53.284Z,24.92
2018-06-28T12:18:19.897Z,25.03
2018-06-28T12:20:46.559Z,24.95
2018-06-28T12:23:13.646Z,24.98
2018-06-28T12:25:43.027Z,24.96
2018-06-28T12:28:09.785Z,24.91
2018-06-28T12:30:36.444Z,24.92
2018-06-28T12:33:03.143Z,24.91
2018-06-28T12:35:29.801Z,24.93
2018-06-28T12:37:56.508Z,25.03
2018-06-28T12:40:23.183Z,25.01
2018-06-28T12:42:52.051Z,25.02
2018-06-28T12:45:18.714Z,25.09
2018-06-28T12:47:45.419Z,25.03
2018-06-28T12:50:13.231Z,25.10
2018-06-28T12:52:39.890Z,25.15
2018-06-28T12:55:06.492Z,25.14
2018-06-28T12:57:33.128Z,25.14
2018-06-28T12:59:59.778Z,25.12
2018-06-28T13:02:26.409Z,25.17
2018-06-28T13:04:53.098Z,25.20
2018-06-28T13:07:19.722Z,25.24
2018-06-28T13:09:46.398Z,25.22
2018-06-28T13:12:13.133Z,25.24
2018-06-28T13:14:39.742Z,25.27
2018-06-28T13:17:06.429Z,25.23
2018-06-28T13:19:33.035Z,25.28
2018-06-28T13:21:59.712Z,25.31
2018-06-28T13:24:26.335Z,25.39
2018-06-28T13:26:53.025Z,25.32
2018-06-28T13:29:19.746Z,25.33
2018-06-28T13:31:46.411Z,25.38
2018-06-28T13:34:13.076Z,25.40
2018-06-28T13:36:39.710Z,25.43
2018-06-28T13:39:06.474Z,25.44
2018-06-28T13:41:33.379Z,25.48
2018-06-28T13:43:59.752Z,25.42
2018-06-28T13:46:26.427Z,25.34
2018-06-28T13:48:53.181Z,25.41
2018-06-28T13:51:19.824Z,25.45
2018-06-28T13:53:46.479Z,25.43
2018-06-28T13:56:13.155Z,25.45
2018-06-28T13:58:39.785Z,25.45
2018-06-28T14:01:06.426Z,25.45
2018-06-28T14:03:33.068Z,25.27
2018-06-28T14:05:59.701Z,25.33
2018-06-28T14:08:26.387Z,25.30
2018-06-28T14:10:53.033Z,25.36
2018-06-28T14:13:19.715Z,25.28
2018-06-28T14:15:46.365Z,25.28
2018-06-28T14:18:15.911Z,25.10
2018-06-28T14:20:42.700Z,24.94
2018-06-28T14:23:09.307Z,24.86
2018-06-28T14:25:35.952Z,24.89
2018-06-28T14:28:02.676Z,24.77
2018-06-28T14:30:29.275Z,24.55
2018-06-28T14:32:55.969Z,24.39
2018-06-28T14:35:22.606Z,24.33
2018-06-28T14:37:49.304Z,24.59
2018-06-28T14:40:17.394Z,24.66
2018-06-28T14:42:42.595Z,24.71
2018-06-28T14:45:09.249Z,24.71
2018-06-28T14:47:35.953Z,24.83
2018-06-28T14:50:02.525Z,24.71
2018-06-28T14:52:29.163Z,24.67
2018-06-28T14:54:55.811Z,24.64
2018-06-28T14:57:22.450Z,24.65
2018-06-28T14:59:49.097Z,24.57
2018-06-28T15:02:15.731Z,24.62
2018-06-28T15:04:42.374Z,24.60
2018-06-28T15:07:09.068Z,24.60
2018-06-28T15:09:35.841Z,24.60
2018-06-28T15:12:02.567Z,24.59
2018-06-28T15:14:29.203Z,24.57
2018-06-28T15:16:55.851Z,24.58
2018-06-28T15:19:22.487Z,24.70
2018-06-28T15:21:49.214Z,24.67
2018-06-28T15:24:15.891Z,24.72
2018-06-28T15:26:42.533Z,24.60
2018-06-28T15:29:09.160Z,24.65
2018-06-28T15:31:35.813Z,24.62
2018-06-28T15:34:02.466Z,24.54
2018-06-28T15:36:29.137Z,24.59
2018-06-28T15:38:55.844Z,24.56
2018-06-28T15:41:22.495Z,24.55
2018-06-28T15:43:49.130Z,24.44
2018-06-28T15:46:15.776Z,24.45
2018-06-28T15:48:42.460Z,24.41
2018-06-28T15:51:09.146Z,24.42
2018-06-28T15:53:35.798Z,24.42
2018-06-28T15:56:02.481Z,24.49
2018-06-28T15:58:29.171Z,24.43
2018-06-28T16:00:55.851Z,24.37
2018-06-28T16:03:22.479Z,24.41
2018-06-28T16:05:49.121Z,24.41
2018-06-28T16:08:15.757Z,24.40
2018-06-28T16:10:42.402Z,24.47
2018-06-28T16:13:09.036Z,24.41
2018-06-28T16:15:35.673Z,24.44
2018-06-28T16:18:02.352Z,24.40
2018-06-28T16:20:29.029Z,24.35
2018-06-28T16:22:55.674Z,24.36
2018-06-28T16:25:22.312Z,24.35
2018-06-28T16:27:48.989Z,24.37
2018-06-28T16:30:15.634Z,24.36
2018-06-28T16:32:42.351Z,24.36
2018-06-28T16:35:08.955Z,24.33
2018-06-28T16:37:35.595Z,24.35
2018-06-28T16:40:02.230Z,24.32
2018-06-28T16:42:28.881Z,24.32
2018-06-28T16:44:55.597Z,24.33
2018-06-28T16:47:22.211Z,24.30
2018-06-28T16:49:48.848Z,24.28
2018-06-28T16:52:15.571Z,24.31
2018-06-28T16:54:42.178Z,24.31
2018-06-28T16:57:08.854Z,24.30
2018-06-28T16:59:35.539Z,24.30
2018-06-28T17:02:02.104Z,24.32
2018-06-28T17:04:28.792Z,24.40
2018-06-28T17:06:55.365Z,24.27
2018-06-28T17:09:22.045Z,24.24
2018-06-28T17:11:48.723Z,24.20
2018-06-28T17:14:15.376Z,24.21
2018-06-28T17:16:42.009Z,24.18
2018-06-28T17:19:08.656Z,24.16
2018-06-28T17:21:35.289Z,24.15
2018-06-28T17:24:02.011Z,24.14
2018-06-28T17:26:28.681Z,24.17
2018-06-28T17:28:55.305Z,24.11
2018-06-28T17:31:21.942Z,24.11
2018-06-28T17:33:48.868Z,24.06
2018-06-28T17:36:15.466Z,24.06
2018-06-28T17:38:43.419Z,24.08
2018-06-28T17:41:08.752Z,24.07
2018-06-28T17:43:35.384Z,24.07
2018-06-28T17:46:02.113Z,24.03
2018-06-28T17:48:28.794Z,24.02
2018-06-28T17:50:55.476Z,24.04
2018-06-28T17:53:22.152Z,24.09
2018-06-28T17:55:48.787Z,24.06
2018-06-28T17:58:15.424Z,24.02
2018-06-28T18:00:42.081Z,23.99
2018-06-28T18:03:08.722Z,23.96
2018-06-28T18:05:35.373Z,23.98
2018-06-28T18:08:02.024Z,23.98
2018-06-28T18:10:28.668Z,23.97
2018-06-28T18:12:55.311Z,23.95
2018-06-28T18:15:22.031Z,23.96
2018-06-28T18:17:48.603Z,23.92
2018-06-28T18:20:15.298Z,23.94
2018-06-28T18:22:41.950Z,23.91
2018-06-28T18:25:08.593Z,23.90
2018-06-28T18:27:35.278Z,23.90
2018-06-28T18:30:01.944Z,23.91
2018-06-28T18:32:28.547Z,23.89
2018-06-28T18:34:55.188Z,23.89
2018-06-28T18:37:21.826Z,23.90
2018-06-28T18:39:48.467Z,23.88
2018-06-28T18:42:15.139Z,23.86
2018-06-28T18:44:41.744Z,23.86
2018-06-28T18:47:08.391Z,23.88
2018-06-28T18:49:35.029Z,23.84
2018-06-28T18:52:01.667Z,23.84
2018-06-28T18:54:28.362Z,23.90
2018-06-28T18:56:55.009Z,23.85
2018-06-28T18:59:21.648Z,23.79
2018-06-28T19:01:48.350Z,23.79
2018-06-28T19:04:14.935Z,23.77
2018-06-28T19:06:41.626Z,23.75
2018-06-28T19:09:08.265Z,23.75
2018-06-28T19:11:34.954Z,23.74
2018-06-28T19:14:01.662Z,23.73
2018-06-28T19:16:28.228Z,23.77
2018-06-28T19:18:54.933Z,23.72
2018-06-28T19:21:21.509Z,23.69
2018-06-28T19:23:48.189Z,23.68
2018-06-28T19:26:14.829Z,23.69
2018-06-28T19:28:41.551Z,23.65
2018-06-28T19:31:08.189Z,23.65
2018-06-28T19:33:34.826Z,23.65
2018-06-28T19:36:01.466Z,23.64
2018-06-28T19:38:28.102Z,23.64
2018-06-28T19:40:54.754Z,23.61
2018-06-28T19:43:21.378Z,23.63
2018-06-28T19:45:48.059Z,23.59
2018-06-28T19:48:14.705Z,23.57
2018-06-28T19:50:41.360Z,23.57
2018-06-28T19:53:07.999Z,23.57
2018-06-28T19:55:34.637Z,23.56
2018-06-28T19:58:01.293Z,23.56
2018-06-28T20:00:27.938Z,23.53
2018-06-28T20:02:54.583Z,23.55
2018-06-28T20:05:21.223Z,23.52
2018-06-28T20:07:47.896Z,23.51
2018-06-28T20:10:14.780Z,23.50
2018-06-28T20:12:41.478Z,23.48
2018-06-28T20:15:08.119Z,23.48
2018-06-28T20:17:34.763Z,23.46
2018-06-28T20:20:01.417Z,23.45
2018-06-28T20:22:28.066Z,23.48
2018-06-28T20:24:54.709Z,23.45
2018-06-28T20:27:21.350Z,23.44
2018-06-28T20:29:48.099Z,23.41
2018-06-28T20:32:14.642Z,23.43
2018-06-28T20:34:41.272Z,23.37
2018-06-28T20:37:07.967Z,23.40
2018-06-28T20:39:34.649Z,23.41
2018-06-28T20:42:01.296Z,23.43
2018-06-28T20:44:28.000Z,23.38
2018-06-28T20:46:54.636Z,23.40
2018-06-28T20:49:21.284Z,23.38
2018-06-28T20:51:47.920Z,23.35
2018-06-28T20:54:14.582Z,23.36
2018-06-28T20:56:41.269Z,23.32
2018-06-28T20:59:07.935Z,23.32
2018-06-28T21:01:34.596Z,23.32
2018-06-28T21:04:01.264Z,23.34
2018-06-28T21:06:27.938Z,23.31
2018-06-28T21:08:54.607Z,23.31
2018-06-28T21:11:21.282Z,23.31
2018-06-28T21:13:47.963Z,23.30
2018-06-28T21:16:14.630Z,23.29
2018-06-28T21:18:41.306Z,23.30
2018-06-28T21:21:07.972Z,23.28
2018-06-28T21:23:34.648Z,23.24
2018-06-28T21:26:01.323Z,23.31
2018-06-28T21:28:28.006Z,23.28
2018-06-28T21:30:54.762Z,23.22
2018-06-28T21:33:21.486Z,23.26
2018-06-28T21:35:48.118Z,23.27
2018-06-28T21:38:14.785Z,23.25
2018-06-28T21:40:41.475Z,23.24
2018-06-28T21:43:08.152Z,23.22
2018-06-28T21:45:34.892Z,23.26
2018-06-28T21:48:01.562Z,23.23
2018-06-28T21:50:28.229Z,23.17
2018-06-28T21:52:54.906Z,23.25
2018-06-28T21:55:21.700Z,23.21
2018-06-28T21:57:48.283Z,23.21
2018-06-28T22:00:14.957Z,23.21
2018-06-28T22:02:41.655Z,23.16
2018-06-28T22:05:08.304Z,23.20
2018-06-28T22:07:34.990Z,23.12
2018-06-28T22:10:01.697Z,23.20
2018-06-28T22:12:28.367Z,23.15
2018-06-28T22:14:55.136Z,23.15
2018-06-28T22:17:21.814Z,23.16
2018-06-28T22:19:48.570Z,23.14
2018-06-28T22:22:15.239Z,23.12
2018-06-28T22:24:41.900Z,23.17
2018-06-28T22:27:08.568Z,23.14
2018-06-28T22:29:35.247Z,23.12
2018-06-28T22:32:01.920Z,23.13
2018-06-28T22:34:28.587Z,23.12
2018-06-28T22:36:55.269Z,23.11
2018-06-28T22:39:21.982Z,23.12
2018-06-28T22:41:48.693Z,23.06
2018-06-28T22:44:15.410Z,23.11
2018-06-28T22:46:42.077Z,23.05
2018-06-28T22:49:08.795Z,23.06
2018-06-28T22:51:35.465Z,23.05
2018-06-28T22:54:02.132Z,23.04
2018-06-28T22:56:28.842Z,23.02
2018-06-28T22:58:55.512Z,23.06
2018-06-28T23:01:22.186Z,23.03
2018-06-28T23:03:48.851Z,23.03
2018-06-28T23:06:15.566Z,23.01
2018-06-28T23:08:42.287Z,23.01
2018-06-28T23:11:08.961Z,22.98
2018-06-28T23:13:35.679Z,23.01
2018-06-28T23:16:02.347Z,23.01
2018-06-28T23:18:29.050Z,23.00
2018-06-28T23:20:55.718Z,22.96
2018-06-28T23:23:22.439Z,22.97
2018-06-28T23:25:49.114Z,22.95
2018-06-28T23:28:15.864Z,22.95
2018-06-28T23:30:42.539Z,22.96
2018-06-28T23:33:09.219Z,22.94
2018-06-28T23:35:35.930Z,22.94
2018-06-28T23:38:02.599Z,22.91
2018-06-28T23:40:29.324Z,22.91
2018-06-28T23:42:55.988Z,22.97
2018-06-28T23:45:22.659Z,22.94
2018-06-28T23:47:49.472Z,22.92
2018-06-28T23:50:16.066Z,22.90
2018-06-28T23:52:42.730Z,22.94
2018-06-28T23:55:09.406Z,22.88
2018-06-28T23:57:36.126Z,22.93
